Time;durP1;ratioP1;P1;durP2;ratioP2;P2;SDS_P1;SDS_P2;PMS_P1;PMS_P2;Temp;Humidity;BMP_temperature;BMP_pressure;BME280_temperature;BME280_humidity;BME280_pressure;Samples;Min_cycle;Max_cycle;Signal;HPM_P1;HPM_P2
2023/08/26 00:00:20;;;;;;;9.18;5.03;;;17.30;99.90;;;;;;4232645;28;20043;-79
2023/08/26 00:02:21;;;;;;;8.85;4.53;;;17.20;99.90;;;;;;4232733;28;20452;-79
2023/08/26 00:04:22;;;;;;;7.47;5.00;;;17.20;99.90;;;;;;4231511;28;20035;-79
2023/08/26 00:06:23;;;;;;;7.90;5.07;;;17.20;99.90;;;;;;4232212;28;20050;-79
2023/08/26 00:08:23;;;;;;;8.13;5.32;;;17.10;99.90;;;;;;4232914;28;20122;-79
2023/08/26 00:10:24;;;;;;;11.32;5.43;;;17.10;99.90;;;;;;4231006;28;20140;-79
2023/08/26 00:12:25;;;;;;;9.60;5.28;;;17.00;99.90;;;;;;4232736;28;20089;-79
2023/08/26 00:14:26;;;;;;;13.00;5.65;;;17.00;99.90;;;;;;4232507;28;20035;-79
2023/08/26 00:16:27;;;;;;;13.98;5.72;;;17.20;99.90;;;;;;4232811;28;20048;-79
2023/08/26 00:18:28;;;;;;;11.70;5.38;;;16.90;99.90;;;;;;4232705;28;20043;-79
2023/08/26 00:20:29;;;;;;;7.75;5.43;;;16.90;99.90;;;;;;4232355;28;20039;-79
2023/08/26 00:22:30;;;;;;;9.90;5.82;;;16.90;99.90;;;;;;4232701;28;20051;-79
2023/08/26 00:24:32;;;;;;;8.73;5.75;;;16.90;99.90;;;;;;4232674;28;20126;-79
2023/08/26 00:26:34;;;;;;;10.20;5.15;;;16.80;99.90;;;;;;4231404;28;20043;-79
2023/08/26 00:28:34;;;;;;;8.80;5.93;;;16.80;99.90;;;;;;4232683;28;20044;-79
2023/08/26 00:30:36;;;;;;;8.80;5.32;;;16.80;99.90;;;;;;4231930;28;20105;-79
2023/08/26 00:32:37;;;;;;;11.27;5.47;;;16.80;99.90;;;;;;4232175;27;20055;-79
2023/08/26 00:34:38;;;;;;;8.32;5.40;;;16.80;99.90;;;;;;4230707;28;20446;-79
2023/08/26 00:36:38;;;;;;;8.90;5.35;;;16.80;99.90;;;;;;4232449;28;20134;-79
2023/08/26 00:38:39;;;;;;;12.52;5.88;;;16.70;99.90;;;;;;4232309;28;20483;-79
2023/08/26 00:40:40;;;;;;;10.48;4.95;;;16.70;99.90;;;;;;4232297;28;20400;-79
2023/08/26 00:42:41;;;;;;;9.50;4.93;;;16.70;99.90;;;;;;4231950;28;20047;-79
2023/08/26 00:44:42;;;;;;;11.00;5.57;;;16.70;99.90;;;;;;4232033;28;20044;-79
2023/08/26 00:46:43;;;;;;;11.90;5.22;;;16.70;99.90;;;;;;4232269;28;20050;-79
2023/08/26 00:48:44;;;;;;;11.18;5.35;;;16.60;99.90;;;;;;4232005;28;20071;-79
2023/08/26 00:50:48;;;;;;;10.98;5.00;;;16.60;99.90;;;;;;4231824;28;20514;-79
2023/08/26 00:52:49;;;;;;;9.90;5.07;;;16.60;99.90;;;;;;4232048;28;20086;-79
2023/08/26 00:54:50;;;;;;;13.68;5.07;;;16.60;99.90;;;;;;4230837;28;20043;-79
2023/08/26 00:56:51;;;;;;;10.98;5.53;;;16.50;99.90;;;;;;4230705;28;20040;-79
2023/08/26 00:58:52;;;;;;;8.80;4.65;;;16.50;99.90;;;;;;4231658;28;20047;-78
2023/08/26 01:00:53;;;;;;;8.02;4.63;;;16.50;99.90;;;;;;4232664;28;20043;-79
2023/08/26 01:02:54;;;;;;;11.18;5.45;;;16.40;99.90;;;;;;4231531;28;20469;-78
2023/08/26 01:04:56;;;;;;;12.82;4.53;;;16.40;99.90;;;;;;4231861;28;20044;-79
2023/08/26 01:06:56;;;;;;;8.20;4.25;;;16.40;99.90;;;;;;4230633;28;20043;-79
2023/08/26 01:08:57;;;;;;;7.55;4.88;;;16.30;99.90;;;;;;4230766;28;20048;-79
2023/08/26 01:11:04;;;;;;;8.45;4.45;;;16.30;99.90;;;;;;4240910;27;20135;-79
2023/08/26 01:13:10;;;;;;;11.73;4.85;;;16.30;99.90;;;;;;4248925;27;20039;-79
2023/08/26 01:15:13;;;;;;;8.70;4.13;;;16.20;99.90;;;;;;4248769;27;20036;-79
2023/08/26 01:17:15;;;;;;;8.65;4.18;;;16.20;99.90;;;;;;4248291;27;20502;-79
2023/08/26 01:19:37;;;;;;;6.22;3.70;;;15.30;99.90;;;;;;4230227;28;20051;-79
2023/08/26 01:21:44;;;;;;;7.05;4.38;;;16.10;99.90;;;;;;4248719;27;20494;-79
2023/08/26 01:23:46;;;;;;;7.88;4.53;;;16.00;99.90;;;;;;4248695;27;20047;-79
2023/08/26 01:25:47;;;;;;;5.10;3.60;;;16.00;99.90;;;;;;4248608;27;20506;-79
2023/08/26 01:27:48;;;;;;;8.82;3.97;;;16.00;99.90;;;;;;4230424;28;20128;-79
2023/08/26 01:29:49;;;;;;;7.93;3.85;;;16.00;99.90;;;;;;4248270;27;20047;-79
2023/08/26 01:32:15;;;;;;;9.40;3.85;;;16.00;99.90;;;;;;4248541;27;20039;-80
2023/08/26 01:34:23;;;;;;;8.88;3.88;;;15.90;99.90;;;;;;4248480;27;20035;-79
2023/08/26 01:36:26;;;;;;;7.72;3.35;;;15.90;99.90;;;;;;4248425;27;20515;-79
2023/08/26 01:38:28;;;;;;;4.88;3.38;;;15.90;99.90;;;;;;4248393;27;20043;-79
2023/08/26 01:40:29;;;;;;;7.68;3.85;;;15.90;99.90;;;;;;4248058;27;20051;-79
2023/08/26 01:42:31;;;;;;;7.65;3.63;;;15.80;99.90;;;;;;4230240;28;20082;-79
2023/08/26 01:44:33;;;;;;;6.95;3.60;;;15.90;99.90;;;;;;4248239;27;20126;-79
2023/08/26 01:46:37;;;;;;;5.72;3.45;;;15.80;99.90;;;;;;4229705;28;20134;-79
2023/08/26 01:48:38;;;;;;;12.18;3.88;;;15.80;99.90;;;;;;4248322;27;20126;-79
2023/08/26 01:50:39;;;;;;;6.68;3.45;;;15.80;99.90;;;;;;4248331;27;20043;-79
2023/08/26 01:52:41;;;;;;;6.78;4.07;;;15.90;99.90;;;;;;4246001;27;20050;-79
2023/08/26 01:54:42;;;;;;;8.30;3.65;;;15.80;99.90;;;;;;4231367;28;20047;-79
2023/08/26 01:56:43;;;;;;;6.35;3.38;;;15.70;99.90;;;;;;4213280;28;20044;-79
2023/08/26 01:58:43;;;;;;;8.65;3.53;;;15.70;99.90;;;;;;4231161;28;20039;-79
2023/08/26 02:00:44;;;;;;;8.27;3.40;;;15.70;99.90;;;;;;4230656;28;20161;-79
2023/08/26 02:02:45;;;;;;;8.75;3.58;;;15.70;99.90;;;;;;4231138;28;20043;-79
2023/08/26 02:04:46;;;;;;;7.03;3.72;;;15.60;99.90;;;;;;4230856;28;20031;-79
2023/08/26 02:06:46;;;;;;;11.02;3.55;;;15.60;99.90;;;;;;4231225;28;20077;-79
2023/08/26 02:08:47;;;;;;;6.45;3.60;;;15.60;99.90;;;;;;4231205;28;20530;-79
2023/08/26 02:10:57;;;;;;;5.43;4.00;;;15.60;99.90;;;;;;4230940;28;20082;-79
2023/08/26 02:12:58;;;;;;;5.70;3.00;;;15.60;99.90;;;;;;4230827;28;20485;-79
2023/08/26 02:15:01;;;;;;;7.22;3.47;;;15.60;99.90;;;;;;4231049;28;20051;-79
2023/08/26 02:17:01;;;;;;;10.48;3.97;;;15.50;99.90;;;;;;4231134;28;20039;-79
2023/08/26 02:19:02;;;;;;;6.07;3.35;;;15.50;99.90;;;;;;4212871;28;20051;-79
2023/08/26 02:21:03;;;;;;;7.72;3.80;;;15.50;99.90;;;;;;4231067;28;20126;-79
2023/08/26 02:23:04;;;;;;;6.85;3.78;;;15.50;99.90;;;;;;4229954;28;20043;-79
2023/08/26 02:25:05;;;;;;;7.70;3.67;;;15.40;99.90;;;;;;4231056;28;20059;-79
2023/08/26 02:27:06;;;;;;;6.63;3.60;;;15.40;99.90;;;;;;4230429;28;20040;-79
2023/08/26 02:29:07;;;;;;;7.70;3.30;;;15.40;99.90;;;;;;4230717;28;20175;-79
2023/08/26 02:31:07;;;;;;;7.97;3.67;;;15.30;99.90;;;;;;4230736;28;20147;-79
2023/08/26 02:33:08;;;;;;;8.88;3.58;;;15.30;99.90;;;;;;4212806;28;20547;-79
2023/08/26 02:35:09;;;;;;;9.35;4.05;;;15.30;99.90;;;;;;4212772;28;20047;-79
2023/08/26 02:37:10;;;;;;;6.10;3.10;;;15.30;99.90;;;;;;4231031;28;20040;-79
2023/08/26 02:39:11;;;;;;;7.93;3.75;;;15.30;99.90;;;;;;4230961;28;20097;-79
2023/08/26 02:41:11;;;;;;;6.38;3.63;;;15.20;99.90;;;;;;4212099;28;20072;-79
2023/08/26 02:43:12;;;;;;;4.88;3.03;;;15.20;99.90;;;;;;4230893;28;20047;-79
2023/08/26 02:45:13;;;;;;;7.53;3.28;;;15.20;99.90;;;;;;4230584;28;20047;-79
2023/08/26 02:47:14;;;;;;;8.07;3.40;;;15.20;99.90;;;;;;4230616;28;20508;-79
2023/08/26 02:49:15;;;;;;;6.10;4.03;;;15.10;99.90;;;;;;4230854;28;20392;-79
2023/08/26 02:51:15;;;;;;;12.35;3.47;;;15.10;99.90;;;;;;4230561;28;20121;-79
2023/08/26 02:53:16;;;;;;;7.78;3.17;;;15.10;99.90;;;;;;4230404;28;20834;-79
2023/08/26 02:55:17;;;;;;;6.80;3.22;;;15.10;99.90;;;;;;4230874;28;20047;-79
2023/08/26 02:57:19;;;;;;;7.30;4.38;;;15.10;99.90;;;;;;4230955;28;20047;-79
2023/08/26 02:59:22;;;;;;;7.13;3.15;;;14.80;99.90;;;;;;4215621;28;20068;-79
2023/08/26 03:01:24;;;;;;;7.00;3.30;;;16.20;99.90;;;;;;4233984;28;20101;-78
2023/08/26 03:03:24;;;;;;;8.55;4.03;;;15.00;99.90;;;;;;4233610;28;20480;-79
2023/08/26 03:05:25;;;;;;;7.10;3.70;;;14.90;99.90;;;;;;4234038;28;20039;-79
2023/08/26 03:07:26;;;;;;;4.50;3.10;;;14.90;99.90;;;;;;4233621;28;20043;-79
2023/08/26 03:09:28;;;;;;;6.38;3.70;;;14.90;99.90;;;;;;4233838;28;20377;-79
2023/08/26 03:11:29;;;;;;;6.20;3.22;;;14.90;99.90;;;;;;4215474;28;20052;-79
2023/08/26 03:13:31;;;;;;;5.30;3.42;;;14.90;99.90;;;;;;4233754;28;20043;-80
2023/08/26 03:15:32;;;;;;;5.68;2.97;;;14.90;99.90;;;;;;4215736;28;20157;-79
2023/08/26 03:17:33;;;;;;;4.20;2.53;;;14.90;99.90;;;;;;4233255;28;20063;-79
2023/08/26 03:19:33;;;;;;;5.85;2.70;;;14.80;99.90;;;;;;4215246;28;20040;-79
2023/08/26 03:21:34;;;;;;;5.85;2.88;;;14.80;99.90;;;;;;4233727;28;20090;-79
2023/08/26 03:23:35;;;;;;;4.22;2.65;;;14.80;99.90;;;;;;4215391;28;20048;-79
2023/08/26 03:25:38;;;;;;;4.90;3.13;;;14.80;99.90;;;;;;4215459;28;20044;-79
2023/08/26 03:27:38;;;;;;;6.85;2.80;;;14.80;99.90;;;;;;4214713;28;20530;-79
2023/08/26 03:29:39;;;;;;;3.35;2.28;;;14.70;99.90;;;;;;4215337;28;20048;-79
2023/08/26 03:31:42;;;;;;;6.30;2.35;;;14.70;99.90;;;;;;4233448;28;20055;-79
2023/08/26 03:33:43;;;;;;;8.02;3.08;;;14.70;99.90;;;;;;4233421;28;20415;-79
2023/08/26 03:35:44;;;;;;;6.68;2.53;;;14.70;99.90;;;;;;4215342;28;20052;-79
2023/08/26 03:37:45;;;;;;;3.10;1.98;;;14.70;99.90;;;;;;4233326;28;20177;-79
2023/08/26 03:39:45;;;;;;;4.90;2.10;;;14.70;99.90;;;;;;4215232;28;20044;-79
2023/08/26 03:41:46;;;;;;;3.72;2.53;;;14.60;99.90;;;;;;4232780;28;20130;-79
2023/08/26 03:43:47;;;;;;;5.35;2.70;;;14.60;99.90;;;;;;4233354;28;20060;-79
2023/08/26 03:45:48;;;;;;;3.22;2.30;;;14.60;99.90;;;;;;4233276;28;20406;-79
2023/08/26 03:47:49;;;;;;;2.67;1.80;;;14.60;99.90;;;;;;4233304;28;20123;-79
2023/08/26 03:49:50;;;;;;;4.75;2.22;;;14.60;99.90;;;;;;4233226;28;20039;-79
2023/08/26 03:51:51;;;;;;;4.10;2.15;;;14.60;99.90;;;;;;4214746;28;20055;-79
2023/08/26 03:53:52;;;;;;;4.47;2.42;;;14.60;99.90;;;;;;4222767;28;20046;-79
2023/08/26 03:55:53;;;;;;;5.15;2.00;;;15.00;99.90;;;;;;4231719;28;20047;-79
2023/08/26 03:57:54;;;;;;;8.00;2.63;;;14.50;99.90;;;;;;4250009;27;20054;-79
2023/08/26 03:59:55;;;;;;;4.70;2.25;;;14.50;99.90;;;;;;4250151;27;20043;-80
2023/08/26 04:01:55;;;;;;;5.30;2.40;;;14.60;99.90;;;;;;4249910;27;20102;-79
2023/08/26 04:03:56;;;;;;;5.03;2.13;;;14.60;99.90;;;;;;4249802;27;20104;-79
2023/08/26 04:06:01;;;;;;;5.63;3.03;;;14.50;99.90;;;;;;4249493;27;20074;-79
2023/08/26 04:08:03;;;;;;;3.40;1.80;;;14.50;99.90;;;;;;4214811;28;20071;-79
2023/08/26 04:10:04;;;;;;;3.05;2.00;;;14.50;99.90;;;;;;4249482;27;20709;-79
2023/08/26 04:12:06;;;;;;;4.38;1.98;;;14.60;99.90;;;;;;4249423;27;20774;-80
2023/08/26 04:14:07;;;;;;;4.70;2.30;;;14.50;99.90;;;;;;4249659;27;20043;-79
2023/08/26 04:16:08;;;;;;;4.72;2.03;;;14.50;99.90;;;;;;4249734;27;20116;-79
2023/08/26 04:18:08;;;;;;;3.78;2.25;;;14.60;99.90;;;;;;4249316;27;20162;-78
2023/08/26 04:20:11;;;;;;;6.32;2.42;;;14.60;99.90;;;;;;4248398;27;20039;-79
2023/08/26 04:22:12;;;;;;;3.30;2.28;;;14.60;99.90;;;;;;4249688;27;20046;-79
2023/08/26 04:24:12;;;;;;;4.88;2.22;;;14.60;99.90;;;;;;4231533;28;20055;-79
2023/08/26 04:26:13;;;;;;;9.18;2.95;;;14.60;99.90;;;;;;4249623;27;20118;-79
2023/08/26 04:28:14;;;;;;;7.30;2.17;;;14.60;99.90;;;;;;4249568;27;20058;-79
2023/08/26 04:30:15;;;;;;;5.03;2.25;;;14.60;99.90;;;;;;4231060;28;20054;-79
2023/08/26 04:32:17;;;;;;;3.85;2.10;;;14.60;99.90;;;;;;4249362;27;20118;-79
2023/08/26 04:34:18;;;;;;;6.40;2.38;;;14.70;99.90;;;;;;4249329;27;20051;-79
2023/08/26 04:36:19;;;;;;;3.95;2.15;;;14.70;99.90;;;;;;4231288;28;20104;-79
2023/08/26 04:38:20;;;;;;;5.40;2.38;;;14.70;99.90;;;;;;4249178;27;20070;-79
2023/08/26 04:40:25;;;;;;;5.63;1.98;;;14.70;99.90;;;;;;4249444;27;20039;-79
2023/08/26 04:42:25;;;;;;;4.63;2.30;;;14.70;99.90;;;;;;4249432;27;20039;-79
2023/08/26 04:44:26;;;;;;;5.18;1.98;;;14.70;99.90;;;;;;4244428;27;20036;-80
2023/08/26 04:46:27;;;;;;;5.97;2.83;;;14.70;99.90;;;;;;4248258;27;20043;-79
2023/08/26 04:48:28;;;;;;;4.53;1.88;;;14.70;99.90;;;;;;4230889;28;20060;-79
2023/08/26 04:50:29;;;;;;;11.55;2.25;;;14.70;99.90;;;;;;4244767;27;20087;-79
2023/08/26 04:52:30;;;;;;;7.35;2.53;;;14.70;99.90;;;;;;4232204;28;20386;-79
2023/08/26 04:54:30;;;;;;;6.68;2.50;;;14.70;99.90;;;;;;4231805;28;20043;-79
2023/08/26 04:56:31;;;;;;;5.40;2.17;;;14.70;99.90;;;;;;4232216;28;20109;-79
2023/08/26 04:58:32;;;;;;;4.93;2.40;;;14.80;99.90;;;;;;4231826;28;20046;-79
2023/08/26 05:00:32;;;;;;;6.65;2.40;;;14.80;99.90;;;;;;4231997;28;20436;-80
2023/08/26 05:02:33;;;;;;;5.07;2.22;;;14.80;99.90;;;;;;4231929;28;20195;-79
2023/08/26 05:04:36;;;;;;;4.00;1.83;;;14.90;99.90;;;;;;4231700;28;20042;-79
2023/08/26 05:06:36;;;;;;;3.20;1.88;;;14.90;99.90;;;;;;4231912;28;20035;-79
2023/08/26 05:08:37;;;;;;;4.32;2.00;;;14.90;99.90;;;;;;4231909;28;20114;-79
2023/08/26 05:10:38;;;;;;;3.90;2.50;;;14.90;99.90;;;;;;4213390;28;20066;-79
2023/08/26 05:12:39;;;;;;;6.22;2.13;;;14.90;99.90;;;;;;4214874;28;20504;-79
2023/08/26 05:14:39;;;;;;;3.58;2.28;;;14.90;99.90;;;;;;4214652;28;20476;-79
2023/08/26 05:16:40;;;;;;;5.80;2.30;;;14.90;99.90;;;;;;4213870;28;20094;-79
2023/08/26 05:18:41;;;;;;;6.85;2.40;;;14.90;99.90;;;;;;4214659;28;20434;-79
2023/08/26 05:20:46;;;;;;;4.82;2.15;;;15.00;99.90;;;;;;4214664;28;20397;-79
2023/08/26 05:22:50;;;;;;;7.10;2.28;;;15.00;99.90;;;;;;4214666;28;20485;-79
2023/08/26 05:24:50;;;;;;;4.13;2.28;;;15.00;99.90;;;;;;4214628;28;20055;-79
2023/08/26 05:26:52;;;;;;;4.47;2.35;;;15.00;99.90;;;;;;4214743;28;20048;-79
2023/08/26 05:28:53;;;;;;;5.55;2.40;;;15.00;99.90;;;;;;4214842;28;20436;-80
2023/08/26 05:30:54;;;;;;;6.70;2.35;;;15.00;99.90;;;;;;4214830;28;20078;-80
2023/08/26 05:32:54;;;;;;;8.32;2.60;;;15.00;99.90;;;;;;4214413;28;20403;-79
2023/08/26 05:34:55;;;;;;;3.90;2.50;;;15.10;99.90;;;;;;4214714;28;20044;-80
2023/08/26 05:36:56;;;;;;;7.05;3.10;;;15.10;99.90;;;;;;4214616;28;20044;-79
2023/08/26 05:38:57;;;;;;;3.92;2.53;;;15.10;99.90;;;;;;4214087;28;20046;-80
2023/08/26 05:40:57;;;;;;;11.00;3.13;;;15.10;99.90;;;;;;4212765;28;20480;-79
2023/08/26 05:43:02;;;;;;;3.22;2.13;;;15.20;99.90;;;;;;4214325;28;20416;-79
2023/08/26 05:45:03;;;;;;;7.88;2.65;;;15.10;99.90;;;;;;4214522;28;20119;-79
2023/08/26 05:47:04;;;;;;;7.97;2.28;;;15.20;99.90;;;;;;4214832;28;20079;-80
2023/08/26 05:49:04;;;;;;;8.68;2.67;;;15.20;99.90;;;;;;4214608;28;20043;-79
2023/08/26 05:51:05;;;;;;;4.75;2.55;;;15.20;99.90;;;;;;4214194;28;20048;-79
2023/08/26 05:53:06;;;;;;;6.30;2.33;;;15.20;99.90;;;;;;4214079;28;20490;-79
2023/08/26 05:55:08;;;;;;;8.68;2.17;;;15.30;99.90;;;;;;4214220;28;20048;-79
2023/08/26 05:57:11;;;;;;;4.00;2.30;;;15.30;99.90;;;;;;4214163;28;20040;-79
2023/08/26 05:59:11;;;;;;;8.60;2.35;;;15.30;99.90;;;;;;4214090;28;20040;-79
2023/08/26 06:01:12;;;;;;;5.50;2.38;;;15.30;99.90;;;;;;4220412;28;20136;-80
2023/08/26 06:03:13;;;;;;;5.88;2.63;;;15.30;99.90;;;;;;4230816;28;20050;-79
2023/08/26 06:05:14;;;;;;;7.30;2.15;;;15.30;99.90;;;;;;4225863;28;20051;-80
2023/08/26 06:07:15;;;;;;;8.23;5.25;;;15.30;99.90;;;;;;4214823;28;20051;-80
2023/08/26 06:09:16;;;;;;;4.22;2.80;;;15.40;99.90;;;;;;4196282;28;20447;-79
2023/08/26 06:11:17;;;;;;;6.85;2.83;;;15.40;99.90;;;;;;4223830;28;20052;-80
2023/08/26 06:13:18;;;;;;;5.15;2.20;;;15.40;99.90;;;;;;4212262;28;20075;-80
2023/08/26 06:15:18;;;;;;;4.60;2.33;;;15.40;99.90;;;;;;4230759;28;20040;-80
2023/08/26 06:17:19;;;;;;;5.95;2.20;;;15.40;99.90;;;;;;4231148;28;20559;-79
2023/08/26 06:19:20;;;;;;;5.07;2.20;;;15.40;99.90;;;;;;4231011;28;20039;-79
2023/08/26 06:21:21;;;;;;;4.35;2.10;;;15.40;99.90;;;;;;4212770;28;20047;-79
2023/08/26 06:23:21;;;;;;;2.90;2.13;;;15.60;99.90;;;;;;4246245;28;20095;-79
2023/08/26 06:25:22;;;;;;;4.63;2.17;;;15.40;99.90;;;;;;4248127;28;20043;-80
2023/08/26 06:27:23;;;;;;;4.80;2.08;;;15.40;99.90;;;;;;4247631;28;20051;-80
2023/08/26 06:29:25;;;;;;;8.70;2.45;;;15.40;99.90;;;;;;4248128;28;20376;-79
2023/08/26 06:31:26;;;;;;;2.42;1.75;;;14.60;99.90;;;;;;4229731;28;20067;-80
2023/08/26 06:33:27;;;;;;;3.88;2.10;;;15.40;99.90;;;;;;4250134;27;20046;-79
2023/08/26 06:35:28;;;;;;;6.95;2.13;;;15.50;99.90;;;;;;4251417;27;20138;-80
2023/08/26 06:37:29;;;;;;;3.33;2.33;;;15.30;99.90;;;;;;4251726;27;20050;-80
2023/08/26 06:39:29;;;;;;;4.03;2.65;;;15.20;99.90;;;;;;4251485;27;20035;-79
2023/08/26 06:41:32;;;;;;;4.63;1.90;;;15.20;99.90;;;;;;4253098;27;20043;-79
2023/08/26 06:43:33;;;;;;;3.20;1.70;;;15.20;99.90;;;;;;4254480;27;20047;-79
2023/08/26 06:45:34;;;;;;;3.08;1.90;;;15.20;99.90;;;;;;4251808;27;20578;-80
2023/08/26 06:47:35;;;;;;;4.38;1.98;;;15.20;99.90;;;;;;4250786;27;20043;-79
2023/08/26 06:49:36;;;;;;;4.15;2.10;;;15.20;99.90;;;;;;4251273;27;20046;-80
2023/08/26 06:51:36;;;;;;;5.38;2.03;;;15.20;99.90;;;;;;4233278;28;20044;-79
2023/08/26 06:53:37;;;;;;;3.08;1.90;;;15.30;99.90;;;;;;4251165;27;20043;-79
2023/08/26 06:55:38;;;;;;;3.20;1.98;;;15.20;99.90;;;;;;4250991;27;20043;-80
2023/08/26 06:57:39;;;;;;;4.32;1.85;;;15.30;99.90;;;;;;4232633;28;20054;-79
2023/08/26 06:59:39;;;;;;;4.95;2.00;;;15.10;99.90;;;;;;4237323;27;20468;-80
2023/08/26 07:01:40;;;;;;;4.15;2.00;;;14.80;99.90;;;;;;4215682;28;20058;-80
2023/08/26 07:03:41;;;;;;;5.95;2.05;;;15.10;99.90;;;;;;4233296;28;20044;-79
2023/08/26 07:05:43;;;;;;;2.35;1.85;;;15.10;99.90;;;;;;4233956;28;20048;-79
2023/08/26 07:07:44;;;;;;;2.70;1.42;;;15.10;99.90;;;;;;4216204;28;20056;-79
2023/08/26 07:09:45;;;;;;;2.58;1.67;;;15.20;99.90;;;;;;4215936;28;20040;-79
2023/08/26 07:11:45;;;;;;;2.30;1.80;;;14.60;99.90;;;;;;4233964;28;20083;-80
2023/08/26 07:13:46;;;;;;;3.08;1.90;;;15.20;99.90;;;;;;4233479;28;20067;-80
2023/08/26 07:15:47;;;;;;;6.90;2.38;;;15.20;99.90;;;;;;4246111;27;20043;-80
2023/08/26 07:17:48;;;;;;;6.00;2.15;;;15.30;99.90;;;;;;4249209;27;20418;-80
2023/08/26 07:19:50;;;;;;;2.80;1.73;;;15.30;99.90;;;;;;4249461;27;20114;-80
2023/08/26 07:21:51;;;;;;;5.10;1.90;;;15.30;99.90;;;;;;4244906;27;20574;-80
2023/08/26 07:23:52;;;;;;;3.97;1.75;;;15.40;99.90;;;;;;4249980;27;20043;-80
2023/08/26 07:25:52;;;;;;;3.42;1.90;;;15.40;99.90;;;;;;4250700;27;20046;-80
2023/08/26 07:27:53;;;;;;;3.00;1.90;;;15.50;99.90;;;;;;4250161;27;20039;-80
2023/08/26 07:29:54;;;;;;;6.10;1.80;;;15.50;99.90;;;;;;4250571;27;20472;-80
2023/08/26 07:31:55;;;;;;;3.47;2.15;;;15.60;99.90;;;;;;4250266;27;20039;-80
2023/08/26 07:33:55;;;;;;;6.35;1.98;;;16.90;99.90;;;;;;4250345;27;20035;-80
2023/08/26 07:36:07;;;;;;;4.75;1.85;;;15.60;99.90;;;;;;4250203;27;20043;-80
2023/08/26 07:38:08;;;;;;;2.97;1.58;;;16.00;99.90;;;;;;4250356;27;20060;-80
2023/08/26 07:40:13;;;;;;;5.57;2.60;;;16.20;99.90;;;;;;4250604;27;20077;-79
2023/08/26 07:42:14;;;;;;;5.53;2.97;;;16.40;99.90;;;;;;4251350;27;20050;-80
2023/08/26 07:44:14;;;;;;;7.25;2.80;;;16.60;99.90;;;;;;4251895;27;20399;-80
2023/08/26 07:46:22;;;;;;;5.18;3.25;;;16.80;99.90;;;;;;4237935;28;20077;-82
2023/08/26 07:48:23;;;;;;;6.63;3.80;;;17.20;99.90;;;;;;4233559;28;20043;-81
2023/08/26 07:50:24;;;;;;;5.65;4.18;;;17.20;99.90;;;;;;4250398;27;20130;-80
2023/08/26 07:52:28;;;;;;;9.80;4.85;;;17.20;99.90;;;;;;4233691;28;20081;-79
2023/08/26 07:54:28;;;;;;;11.32;6.50;;;17.40;99.90;;;;;;4252480;27;20046;-80
2023/08/26 07:56:34;;;;;;;15.80;6.70;;;17.40;99.90;;;;;;4236056;27;20043;-80
2023/08/26 07:58:42;;;;;;;15.30;6.63;;;17.50;99.90;;;;;;4237336;28;20044;-81
2023/08/26 08:00:46;;;;;;;12.57;6.78;;;17.60;99.90;;;;;;4252436;27;20104;-80
2023/08/26 08:02:54;;;;;;;14.27;6.82;;;17.70;99.90;;;;;;4254117;27;20039;-81
2023/08/26 08:04:56;;;;;;;14.80;7.32;;;17.90;99.90;;;;;;4227254;28;20403;-81
2023/08/26 08:06:57;;;;;;;15.48;8.57;;;18.00;99.90;;;;;;4237563;28;20396;-81
2023/08/26 08:08:58;;;;;;;15.10;8.20;;;18.10;99.90;;;;;;4217558;28;20058;-80
2023/08/26 08:10:59;;;;;;;13.27;8.15;;;18.00;99.90;;;;;;4215682;28;20087;-80
2023/08/26 08:13:00;;;;;;;13.73;8.30;;;18.60;99.90;;;;;;4234686;28;20044;-82
2023/08/26 08:15:05;;;;;;;15.88;9.88;;;17.80;99.90;;;;;;4216962;28;20052;-80
2023/08/26 08:17:09;;;;;;;15.93;8.05;;;17.70;99.90;;;;;;4235610;28;20051;-80
2023/08/26 08:19:13;;;;;;;17.25;8.73;;;17.70;99.90;;;;;;4216101;28;20131;-80
2023/08/26 08:21:14;;;;;;;14.63;9.32;;;17.60;99.90;;;;;;4239422;28;20043;-80
2023/08/26 08:23:14;;;;;;;17.35;9.25;;;17.60;99.90;;;;;;4235978;28;20036;-80
2023/08/26 08:25:15;;;;;;;18.35;11.10;;;17.40;99.90;;;;;;4215823;28;20097;-80
2023/08/26 08:27:16;;;;;;;19.75;10.05;;;17.40;99.90;;;;;;4232693;28;20048;-80
2023/08/26 08:29:16;;;;;;;20.27;11.05;;;17.50;99.90;;;;;;4232495;28;20040;-80
2023/08/26 08:31:17;;;;;;;17.27;9.32;;;17.60;99.90;;;;;;4235654;28;20043;-80
2023/08/26 08:33:18;;;;;;;14.80;9.57;;;17.70;99.90;;;;;;4241909;28;20054;-81
2023/08/26 08:35:19;;;;;;;16.73;9.68;;;17.90;99.90;;;;;;4198461;28;20431;-80
2023/08/26 08:37:20;;;;;;;11.98;8.60;;;18.00;99.90;;;;;;4233481;28;20112;-80
2023/08/26 08:39:21;;;;;;;18.17;9.40;;;18.30;99.90;;;;;;4234368;28;20165;-80
2023/08/26 08:41:23;;;;;;;13.50;9.07;;;18.50;99.90;;;;;;4232632;28;20051;-80
2023/08/26 08:43:27;;;;;;;12.82;8.07;;;18.70;99.90;;;;;;4236650;28;20036;-81
2023/08/26 08:45:28;;;;;;;15.48;8.90;;;18.90;99.90;;;;;;4214761;28;20485;-81
2023/08/26 08:47:29;;;;;;;16.42;8.75;;;18.90;99.90;;;;;;4197609;28;20044;-80
2023/08/26 08:49:32;;;;;;;15.75;9.50;;;18.90;99.90;;;;;;4232387;28;20048;-80
2023/08/26 08:51:34;;;;;;;13.55;8.77;;;19.10;99.90;;;;;;4232373;28;20051;-80
2023/08/26 08:53:44;;;;;;;11.35;7.40;;;19.10;99.90;;;;;;4232112;28;20082;-80
2023/08/26 08:55:45;;;;;;;12.43;8.23;;;19.20;99.90;;;;;;4232134;28;20069;-80
2023/08/26 08:57:49;;;;;;;11.95;7.47;;;18.20;99.90;;;;;;4232455;28;20391;-80
2023/08/26 08:59:52;;;;;;;9.88;7.40;;;19.10;99.90;;;;;;4231757;28;20039;-80
2023/08/26 09:01:55;;;;;;;13.57;7.50;;;19.30;99.90;;;;;;4237563;27;20051;-80
2023/08/26 09:03:56;;;;;;;13.77;7.50;;;19.40;99.90;;;;;;4242999;27;20043;-83
2023/08/26 09:05:57;;;;;;;12.20;7.50;;;19.50;99.90;;;;;;4249196;27;20165;-81
2023/08/26 09:08:02;;;;;;;8.45;6.35;;;19.60;99.90;;;;;;4230969;27;20043;-79
2023/08/26 09:10:05;;;;;;;8.50;6.13;;;19.80;99.90;;;;;;4248800;27;20054;-82
2023/08/26 09:12:07;;;;;;;12.70;6.28;;;20.00;99.90;;;;;;4228842;28;20044;-81
2023/08/26 09:14:08;;;;;;;11.13;5.72;;;20.30;99.90;;;;;;4215345;28;20085;-81
2023/08/26 09:16:09;;;;;;;7.45;5.50;;;20.40;99.90;;;;;;4214083;28;20514;-81
2023/08/26 09:18:12;;;;;;;12.43;5.93;;;20.40;99.90;;;;;;4213721;28;20126;-81
2023/08/26 09:20:12;;;;;;;10.10;6.18;;;20.60;99.90;;;;;;4215211;28;20484;-81
2023/08/26 09:22:13;;;;;;;12.02;5.90;;;20.50;99.90;;;;;;4214786;28;20098;-81
2023/08/26 09:24:15;;;;;;;13.00;5.35;;;20.50;99.90;;;;;;4215038;28;20040;-81
2023/08/26 09:26:16;;;;;;;7.40;5.10;;;20.40;99.90;;;;;;4214966;28;20396;-81
2023/08/26 09:28:17;;;;;;;7.55;5.50;;;20.20;99.90;;;;;;4214403;28;20119;-81
2023/08/26 09:30:20;;;;;;;8.43;6.30;;;20.10;99.90;;;;;;4215769;28;20066;-82
2023/08/26 09:32:35;;;;;;;7.85;5.25;;;20.20;99.90;;;;;;4213757;28;20055;-81
2023/08/26 09:34:37;;;;;;;12.20;5.72;;;20.50;99.90;;;;;;4213499;28;20412;-81
2023/08/26 09:36:39;;;;;;;8.63;5.00;;;20.70;99.90;;;;;;4214866;28;20116;-81
2023/08/26 09:38:49;;;;;;;7.57;4.55;;;20.90;99.90;;;;;;4214647;28;20480;-81
2023/08/26 09:40:56;;;;;;;6.90;4.25;;;20.90;99.90;;;;;;4214523;28;20044;-81
2023/08/26 09:43:03;;;;;;;6.57;4.07;;;20.90;99.90;;;;;;4214328;28;20368;-81
2023/08/26 09:45:13;;;;;;;8.00;4.47;;;20.60;99.90;;;;;;4214740;28;20051;-81
2023/08/26 09:47:15;;;;;;;7.75;4.53;;;20.50;99.90;;;;;;4214629;28;20544;-81
2023/08/26 09:49:18;;;;;;;10.15;5.13;;;20.30;99.90;;;;;;4214371;28;20047;-81
2023/08/26 09:51:32;;;;;;;10.60;4.70;;;20.00;99.90;;;;;;4214581;28;20467;-81
2023/08/26 09:53:32;;;;;;;9.00;5.43;;;19.90;99.90;;;;;;4214026;28;20075;-81
2023/08/26 09:55:34;;;;;;;8.65;5.38;;;19.90;99.90;;;;;;4214555;28;20062;-81
2023/08/26 09:57:35;;;;;;;12.02;4.38;;;19.90;99.90;;;;;;4214467;28;20086;-81
2023/08/26 09:59:35;;;;;;;10.10;5.10;;;20.10;99.90;;;;;;4212906;28;20448;-81
2023/08/26 10:01:39;;;;;;;10.88;4.68;;;20.30;99.90;;;;;;4214313;28;20046;-81
2023/08/26 10:03:44;;;;;;;10.50;4.78;;;20.50;99.90;;;;;;4213891;28;20040;-80
2023/08/26 10:05:47;;;;;;;7.97;4.85;;;20.60;99.90;;;;;;4214645;28;20085;-80
2023/08/26 10:07:51;;;;;;;6.25;3.90;;;20.60;99.90;;;;;;4202075;28;20048;-80
2023/08/26 10:10:32;;;;;;;8.73;4.20;;;20.50;99.90;;;;;;4197689;28;20041;-81
2023/08/26 10:12:40;;;;;;;7.97;5.10;;;20.50;99.90;;;;;;4178996;28;20048;-81
2023/08/26 10:14:43;;;;;;;8.60;4.05;;;20.30;99.90;;;;;;4210539;28;20059;-80
2023/08/26 10:16:45;;;;;;;6.97;4.43;;;20.20;99.90;;;;;;4231103;28;20078;-80
2023/08/26 10:18:54;;;;;;;6.85;4.30;;;20.00;99.90;;;;;;4230250;28;20044;-80
2023/08/26 10:20:56;;;;;;;7.15;4.18;;;19.70;99.90;;;;;;4230218;28;20043;-80
2023/08/26 10:22:56;;;;;;;5.28;3.50;;;19.40;99.90;;;;;;4230038;28;20057;-80
2023/08/26 10:24:58;;;;;;;7.95;2.92;;;19.10;99.90;;;;;;4231329;28;20126;-80
2023/08/26 10:26:58;;;;;;;8.85;3.33;;;18.80;99.90;;;;;;4230712;28;20093;-80
2023/08/26 10:29:00;;;;;;;3.95;2.65;;;18.60;99.90;;;;;;4229547;28;20065;-80
2023/08/26 10:31:00;;;;;;;3.75;1.80;;;18.40;99.90;;;;;;4230990;28;20040;-80
2023/08/26 10:33:02;;;;;;;1.88;1.42;;;18.10;99.90;;;;;;4231130;28;20043;-79